sensor_id;sensor_type;location;lat;lon;timestamp;P1;durP1;ratioP1;P2;durP2;ratioP2
8317;SDS011;4196;48.926;8.964;2023-06-22T00:00:29;6.53;;;4.70;;
8317;SDS011;4196;48.926;8.964;2023-06-22T00:03:17;6.40;;;4.93;;
8317;SDS011;4196;48.926;8.964;2023-06-22T00:06:05;7.10;;;4.70;;
8317;SDS011;4196;48.926;8.964;2023-06-22T00:08:51;8.97;;;4.93;;
8317;SDS011;4196;48.926;8.964;2023-06-22T00:11:38;7.47;;;5.60;;
8317;SDS011;4196;48.926;8.964;2023-06-22T00:14:24;7.33;;;5.57;;
8317;SDS011;4196;48.926;8.964;2023-06-22T00:17:11;8.93;;;5.60;;
8317;SDS011;4196;48.926;8.964;2023-06-22T00:19:58;5.87;;;5.03;;
8317;SDS011;4196;48.926;8.964;2023-06-22T00:22:44;7.37;;;5.17;;
8317;SDS011;4196;48.926;8.964;2023-06-22T00:25:31;8.13;;;5.93;;
8317;SDS011;4196;48.926;8.964;2023-06-22T00:28:17;8.27;;;5.77;;
8317;SDS011;4196;48.926;8.964;2023-06-22T00:31:03;8.47;;;5.80;;
8317;SDS011;4196;48.926;8.964;2023-06-22T00:33:50;7.47;;;5.67;;
8317;SDS011;4196;48.926;8.964;2023-06-22T00:36:36;8.90;;;5.10;;
8317;SDS011;4196;48.926;8.964;2023-06-22T00:39:23;9.23;;;5.03;;
8317;SDS011;4196;48.926;8.964;2023-06-22T00:42:09;15.60;;;5.80;;
8317;SDS011;4196;48.926;8.964;2023-06-22T00:44:56;10.20;;;5.00;;
8317;SDS011;4196;48.926;8.964;2023-06-22T00:47:43;10.50;;;5.00;;
8317;SDS011;4196;48.926;8.964;2023-06-22T00:50:30;6.50;;;4.77;;
8317;SDS011;4196;48.926;8.964;2023-06-22T00:53:21;7.13;;;4.83;;
8317;SDS011;4196;48.926;8.964;2023-06-22T00:56:08;8.43;;;5.20;;
8317;SDS011;4196;48.926;8.964;2023-06-22T00:58:55;9.40;;;5.90;;
8317;SDS011;4196;48.926;8.964;2023-06-22T01:01:44;8.77;;;5.87;;
8317;SDS011;4196;48.926;8.964;2023-06-22T01:04:34;10.40;;;5.40;;
8317;SDS011;4196;48.926;8.964;2023-06-22T01:07:34;9.73;;;5.40;;
8317;SDS011;4196;48.926;8.964;2023-06-22T01:16:35;7.10;;;5.27;;
8317;SDS011;4196;48.926;8.964;2023-06-22T01:19:35;6.70;;;4.77;;
8317;SDS011;4196;48.926;8.964;2023-06-22T01:22:30;7.33;;;4.93;;
8317;SDS011;4196;48.926;8.964;2023-06-22T01:25:19;7.57;;;4.80;;
8317;SDS011;4196;48.926;8.964;2023-06-22T01:28:22;10.77;;;5.47;;
8317;SDS011;4196;48.926;8.964;2023-06-22T01:31:23;7.97;;;5.83;;
8317;SDS011;4196;48.926;8.964;2023-06-22T01:34:11;10.40;;;5.70;;
8317;SDS011;4196;48.926;8.964;2023-06-22T01:36:59;8.43;;;5.93;;
8317;SDS011;4196;48.926;8.964;2023-06-22T01:39:48;10.80;;;5.53;;
8317;SDS011;4196;48.926;8.964;2023-06-22T01:42:36;9.53;;;5.80;;
8317;SDS011;4196;48.926;8.964;2023-06-22T01:45:26;12.40;;;6.23;;
8317;SDS011;4196;48.926;8.964;2023-06-22T01:48:13;12.27;;;5.40;;
8317;SDS011;4196;48.926;8.964;2023-06-22T01:50:59;7.47;;;6.20;;
8317;SDS011;4196;48.926;8.964;2023-06-22T01:53:46;11.17;;;6.17;;
8317;SDS011;4196;48.926;8.964;2023-06-22T01:56:33;9.03;;;6.17;;
8317;SDS011;4196;48.926;8.964;2023-06-22T01:59:25;8.90;;;5.83;;
8317;SDS011;4196;48.926;8.964;2023-06-22T02:02:21;8.60;;;5.93;;
8317;SDS011;4196;48.926;8.964;2023-06-22T02:05:14;8.23;;;5.93;;
8317;SDS011;4196;48.926;8.964;2023-06-22T02:08:07;8.00;;;6.00;;
8317;SDS011;4196;48.926;8.964;2023-06-22T02:10:56;9.17;;;6.20;;
8317;SDS011;4196;48.926;8.964;2023-06-22T02:13:45;6.77;;;5.93;;
8317;SDS011;4196;48.926;8.964;2023-06-22T02:16:32;8.37;;;5.70;;
8317;SDS011;4196;48.926;8.964;2023-06-22T02:19:22;8.40;;;6.20;;
8317;SDS011;4196;48.926;8.964;2023-06-22T02:22:11;9.60;;;6.03;;
8317;SDS011;4196;48.926;8.964;2023-06-22T02:25:03;19.37;;;7.43;;
8317;SDS011;4196;48.926;8.964;2023-06-22T02:27:49;9.57;;;5.83;;
8317;SDS011;4196;48.926;8.964;2023-06-22T02:30:36;14.87;;;6.50;;
8317;SDS011;4196;48.926;8.964;2023-06-22T02:33:22;9.67;;;6.30;;
8317;SDS011;4196;48.926;8.964;2023-06-22T02:36:09;11.20;;;5.90;;
8317;SDS011;4196;48.926;8.964;2023-06-22T02:38:59;7.83;;;5.47;;
8317;SDS011;4196;48.926;8.964;2023-06-22T02:41:53;7.47;;;6.00;;
8317;SDS011;4196;48.926;8.964;2023-06-22T02:44:41;9.33;;;6.27;;
8317;SDS011;4196;48.926;8.964;2023-06-22T02:47:27;7.47;;;6.03;;
8317;SDS011;4196;48.926;8.964;2023-06-22T02:50:14;9.97;;;6.93;;
8317;SDS011;4196;48.926;8.964;2023-06-22T02:53:01;7.80;;;6.27;;
8317;SDS011;4196;48.926;8.964;2023-06-22T02:55:51;10.13;;;6.17;;
8317;SDS011;4196;48.926;8.964;2023-06-22T02:58:38;9.97;;;6.57;;
8317;SDS011;4196;48.926;8.964;2023-06-22T03:01:30;13.23;;;7.67;;
8317;SDS011;4196;48.926;8.964;2023-06-22T03:04:17;11.23;;;5.93;;
8317;SDS011;4196;48.926;8.964;2023-06-22T03:07:04;12.07;;;6.97;;
8317;SDS011;4196;48.926;8.964;2023-06-22T03:09:52;12.87;;;7.10;;
8317;SDS011;4196;48.926;8.964;2023-06-22T03:12:39;13.03;;;5.87;;
8317;SDS011;4196;48.926;8.964;2023-06-22T03:15:26;9.83;;;6.37;;
8317;SDS011;4196;48.926;8.964;2023-06-22T03:18:15;13.17;;;6.03;;
8317;SDS011;4196;48.926;8.964;2023-06-22T03:21:02;15.10;;;6.20;;
8317;SDS011;4196;48.926;8.964;2023-06-22T03:23:50;10.77;;;6.07;;
8317;SDS011;4196;48.926;8.964;2023-06-22T03:26:36;11.50;;;6.90;;
8317;SDS011;4196;48.926;8.964;2023-06-22T03:29:23;11.57;;;6.60;;
8317;SDS011;4196;48.926;8.964;2023-06-22T03:32:14;11.37;;;6.47;;
8317;SDS011;4196;48.926;8.964;2023-06-22T03:35:01;8.33;;;5.67;;
8317;SDS011;4196;48.926;8.964;2023-06-22T03:37:48;8.33;;;6.60;;
8317;SDS011;4196;48.926;8.964;2023-06-22T03:40:35;7.37;;;5.87;;
8317;SDS011;4196;48.926;8.964;2023-06-22T03:43:22;9.80;;;5.80;;
8317;SDS011;4196;48.926;8.964;2023-06-22T03:46:09;8.43;;;6.80;;
8317;SDS011;4196;48.926;8.964;2023-06-22T03:48:56;11.27;;;7.13;;
8317;SDS011;4196;48.926;8.964;2023-06-22T03:51:42;8.37;;;6.50;;
8317;SDS011;4196;48.926;8.964;2023-06-22T03:54:29;10.33;;;6.23;;
8317;SDS011;4196;48.926;8.964;2023-06-22T03:57:16;11.23;;;6.23;;
8317;SDS011;4196;48.926;8.964;2023-06-22T04:00:02;11.90;;;6.63;;
8317;SDS011;4196;48.926;8.964;2023-06-22T04:02:57;9.73;;;5.70;;
8317;SDS011;4196;48.926;8.964;2023-06-22T04:14:43;10.67;;;6.23;;
8317;SDS011;4196;48.926;8.964;2023-06-22T04:17:30;9.77;;;6.00;;
8317;SDS011;4196;48.926;8.964;2023-06-22T04:20:16;9.60;;;5.70;;
8317;SDS011;4196;48.926;8.964;2023-06-22T04:23:03;10.87;;;5.90;;
8317;SDS011;4196;48.926;8.964;2023-06-22T04:25:49;8.40;;;5.70;;
8317;SDS011;4196;48.926;8.964;2023-06-22T04:28:37;10.50;;;6.40;;
8317;SDS011;4196;48.926;8.964;2023-06-22T04:31:24;9.40;;;6.60;;
8317;SDS011;4196;48.926;8.964;2023-06-22T04:34:18;9.13;;;6.03;;
8317;SDS011;4196;48.926;8.964;2023-06-22T04:37:05;9.60;;;5.83;;
8317;SDS011;4196;48.926;8.964;2023-06-22T04:39:51;11.27;;;6.57;;
8317;SDS011;4196;48.926;8.964;2023-06-22T04:42:38;14.33;;;6.30;;
8317;SDS011;4196;48.926;8.964;2023-06-22T04:45:25;10.80;;;6.27;;
8317;SDS011;4196;48.926;8.964;2023-06-22T04:48:12;8.93;;;5.53;;
8317;SDS011;4196;48.926;8.964;2023-06-22T04:51:02;13.57;;;5.83;;
8317;SDS011;4196;48.926;8.964;2023-06-22T04:53:50;9.80;;;5.73;;
8317;SDS011;4196;48.926;8.964;2023-06-22T04:56:37;7.83;;;5.77;;
8317;SDS011;4196;48.926;8.964;2023-06-22T04:59:24;11.13;;;6.00;;
8317;SDS011;4196;48.926;8.964;2023-06-22T05:02:15;9.90;;;6.10;;
8317;SDS011;4196;48.926;8.964;2023-06-22T05:05:01;13.27;;;6.63;;
8317;SDS011;4196;48.926;8.964;2023-06-22T05:07:53;8.90;;;5.57;;
8317;SDS011;4196;48.926;8.964;2023-06-22T05:10:45;7.37;;;5.60;;
8317;SDS011;4196;48.926;8.964;2023-06-22T05:13:49;9.27;;;5.50;;
8317;SDS011;4196;48.926;8.964;2023-06-22T05:16:36;7.63;;;5.63;;
8317;SDS011;4196;48.926;8.964;2023-06-22T05:19:23;9.47;;;5.90;;
8317;SDS011;4196;48.926;8.964;2023-06-22T05:22:10;10.82;;;5.97;;
8317;SDS011;4196;48.926;8.964;2023-06-22T05:24:58;9.25;;;6.10;;
8317;SDS011;4196;48.926;8.964;2023-06-22T05:27:44;8.00;;;5.63;;
8317;SDS011;4196;48.926;8.964;2023-06-22T05:30:32;7.93;;;5.40;;
8317;SDS011;4196;48.926;8.964;2023-06-22T05:33:18;10.77;;;5.22;;
8317;SDS011;4196;48.926;8.964;2023-06-22T05:36:05;11.07;;;5.28;;
8317;SDS011;4196;48.926;8.964;2023-06-22T05:38:52;8.77;;;5.55;;
8317;SDS011;4196;48.926;8.964;2023-06-22T05:41:39;8.68;;;6.05;;
8317;SDS011;4196;48.926;8.964;2023-06-22T05:44:26;7.68;;;5.38;;
8317;SDS011;4196;48.926;8.964;2023-06-22T05:47:13;7.22;;;5.45;;
8317;SDS011;4196;48.926;8.964;2023-06-22T05:49:59;11.90;;;5.70;;
8317;SDS011;4196;48.926;8.964;2023-06-22T05:52:45;10.95;;;5.97;;
8317;SDS011;4196;48.926;8.964;2023-06-22T05:55:32;6.85;;;5.53;;
8317;SDS011;4196;48.926;8.964;2023-06-22T05:58:20;6.60;;;5.55;;
8317;SDS011;4196;48.926;8.964;2023-06-22T06:01:07;7.93;;;5.97;;
8317;SDS011;4196;48.926;8.964;2023-06-22T06:03:53;8.45;;;6.05;;
8317;SDS011;4196;48.926;8.964;2023-06-22T06:06:40;6.88;;;5.60;;
8317;SDS011;4196;48.926;8.964;2023-06-22T06:09:26;8.52;;;5.72;;
8317;SDS011;4196;48.926;8.964;2023-06-22T06:12:13;6.93;;;5.88;;
8317;SDS011;4196;48.926;8.964;2023-06-22T06:14:59;7.03;;;5.93;;
8317;SDS011;4196;48.926;8.964;2023-06-22T06:17:46;8.68;;;6.13;;
8317;SDS011;4196;48.926;8.964;2023-06-22T06:20:34;8.40;;;5.85;;
8317;SDS011;4196;48.926;8.964;2023-06-22T06:23:21;6.72;;;5.13;;
8317;SDS011;4196;48.926;8.964;2023-06-22T06:26:07;6.70;;;5.20;;
8317;SDS011;4196;48.926;8.964;2023-06-22T06:28:54;9.48;;;5.63;;
8317;SDS011;4196;48.926;8.964;2023-06-22T06:31:41;6.97;;;5.60;;
8317;SDS011;4196;48.926;8.964;2023-06-22T06:34:28;10.38;;;5.93;;
8317;SDS011;4196;48.926;8.964;2023-06-22T06:37:16;6.93;;;5.10;;
8317;SDS011;4196;48.926;8.964;2023-06-22T06:40:09;6.03;;;5.38;;
8317;SDS011;4196;48.926;8.964;2023-06-22T06:42:56;7.25;;;5.25;;
8317;SDS011;4196;48.926;8.964;2023-06-22T06:45:43;8.25;;;5.18;;
8317;SDS011;4196;48.926;8.964;2023-06-22T06:48:30;8.50;;;5.15;;
8317;SDS011;4196;48.926;8.964;2023-06-22T06:51:16;7.53;;;5.28;;
8317;SDS011;4196;48.926;8.964;2023-06-22T06:54:02;11.55;;;5.55;;
8317;SDS011;4196;48.926;8.964;2023-06-22T06:56:49;7.13;;;5.57;;
8317;SDS011;4196;48.926;8.964;2023-06-22T06:59:36;8.25;;;5.30;;
8317;SDS011;4196;48.926;8.964;2023-06-22T07:02:25;6.68;;;5.18;;
8317;SDS011;4196;48.926;8.964;2023-06-22T07:05:13;9.75;;;5.32;;
8317;SDS011;4196;48.926;8.964;2023-06-22T07:08:00;6.72;;;5.20;;
8317;SDS011;4196;48.926;8.964;2023-06-22T07:10:47;5.90;;;5.30;;
8317;SDS011;4196;48.926;8.964;2023-06-22T07:13:34;6.13;;;5.10;;
8317;SDS011;4196;48.926;8.964;2023-06-22T07:16:20;7.15;;;5.18;;
8317;SDS011;4196;48.926;8.964;2023-06-22T07:19:07;6.88;;;5.20;;
8317;SDS011;4196;48.926;8.964;2023-06-22T07:21:55;8.52;;;4.80;;
8317;SDS011;4196;48.926;8.964;2023-06-22T07:24:41;6.13;;;4.55;;
8317;SDS011;4196;48.926;8.964;2023-06-22T07:27:29;7.13;;;4.95;;
8317;SDS011;4196;48.926;8.964;2023-06-22T07:30:21;7.80;;;5.10;;
8317;SDS011;4196;48.926;8.964;2023-06-22T07:33:07;7.43;;;4.72;;
8317;SDS011;4196;48.926;8.964;2023-06-22T07:35:55;7.25;;;4.55;;
8317;SDS011;4196;48.926;8.964;2023-06-22T07:38:41;7.28;;;5.25;;
8317;SDS011;4196;48.926;8.964;2023-06-22T07:41:27;7.15;;;4.15;;
8317;SDS011;4196;48.926;8.964;2023-06-22T07:44:14;5.20;;;4.55;;
8317;SDS011;4196;48.926;8.964;2023-06-22T07:47:00;4.82;;;4.20;;
8317;SDS011;4196;48.926;8.964;2023-06-22T07:49:46;6.25;;;4.22;;
8317;SDS011;4196;48.926;8.964;2023-06-22T07:52:33;6.82;;;4.80;;
8317;SDS011;4196;48.926;8.964;2023-06-22T07:55:19;5.78;;;4.30;;
8317;SDS011;4196;48.926;8.964;2023-06-22T07:58:06;6.95;;;3.95;;
8317;SDS011;4196;48.926;8.964;2023-06-22T08:00:53;5.78;;;4.00;;
8317;SDS011;4196;48.926;8.964;2023-06-22T08:03:39;7.75;;;4.20;;
8317;SDS011;4196;48.926;8.964;2023-06-22T08:06:26;6.80;;;4.07;;
8317;SDS011;4196;48.926;8.964;2023-06-22T08:09:12;7.00;;;4.70;;
8317;SDS011;4196;48.926;8.964;2023-06-22T08:11:59;5.25;;;3.95;;
8317;SDS011;4196;48.926;8.964;2023-06-22T08:14:45;6.38;;;4.63;;
8317;SDS011;4196;48.926;8.964;2023-06-22T08:17:32;7.60;;;4.75;;
8317;SDS011;4196;48.926;8.964;2023-06-22T08:20:19;5.80;;;4.28;;
8317;SDS011;4196;48.926;8.964;2023-06-22T08:23:05;6.97;;;4.13;;
8317;SDS011;4196;48.926;8.964;2023-06-22T08:25:52;9.88;;;4.88;;
8317;SDS011;4196;48.926;8.964;2023-06-22T08:28:38;7.18;;;4.13;;
8317;SDS011;4196;48.926;8.964;2023-06-22T08:31:25;6.07;;;3.40;;
8317;SDS011;4196;48.926;8.964;2023-06-22T08:34:12;9.93;;;4.38;;
8317;SDS011;4196;48.926;8.964;2023-06-22T08:37:02;7.90;;;4.05;;
8317;SDS011;4196;48.926;8.964;2023-06-22T08:39:52;7.45;;;4.75;;
8317;SDS011;4196;48.926;8.964;2023-06-22T08:42:40;8.15;;;4.30;;
8317;SDS011;4196;48.926;8.964;2023-06-22T08:45:27;5.00;;;4.13;;
8317;SDS011;4196;48.926;8.964;2023-06-22T08:48:16;8.27;;;4.32;;
8317;SDS011;4196;48.926;8.964;2023-06-22T08:51:02;8.10;;;4.03;;
8317;SDS011;4196;48.926;8.964;2023-06-22T08:53:49;7.70;;;4.55;;
8317;SDS011;4196;48.926;8.964;2023-06-22T08:56:36;8.68;;;4.80;;
8317;SDS011;4196;48.926;8.964;2023-06-22T08:59:22;8.88;;;5.07;;
8317;SDS011;4196;48.926;8.964;2023-06-22T09:02:09;5.97;;;4.07;;
8317;SDS011;4196;48.926;8.964;2023-06-22T09:04:59;5.70;;;4.55;;
8317;SDS011;4196;48.926;8.964;2023-06-22T09:07:49;7.05;;;4.18;;
8317;SDS011;4196;48.926;8.964;2023-06-22T09:10:35;8.98;;;4.38;;
8317;SDS011;4196;48.926;8.964;2023-06-22T09:13:22;9.30;;;4.88;;
8317;SDS011;4196;48.926;8.964;2023-06-22T09:16:08;7.57;;;5.05;;
8317;SDS011;4196;48.926;8.964;2023-06-22T09:18:55;7.57;;;4.35;;
8317;SDS011;4196;48.926;8.964;2023-06-22T09:21:42;7.60;;;4.70;;
8317;SDS011;4196;48.926;8.964;2023-06-22T09:24:28;6.65;;;4.50;;
8317;SDS011;4196;48.926;8.964;2023-06-22T09:27:15;7.78;;;4.47;;
8317;SDS011;4196;48.926;8.964;2023-06-22T09:30:02;6.32;;;4.05;;
8317;SDS011;4196;48.926;8.964;2023-06-22T09:32:49;8.27;;;4.20;;
8317;SDS011;4196;48.926;8.964;2023-06-22T09:35:36;6.60;;;4.40;;
8317;SDS011;4196;48.926;8.964;2023-06-22T09:38:23;7.05;;;4.88;;
8317;SDS011;4196;48.926;8.964;2023-06-22T09:41:09;6.32;;;4.10;;
8317;SDS011;4196;48.926;8.964;2023-06-22T09:43:56;8.13;;;4.28;;
8317;SDS011;4196;48.926;8.964;2023-06-22T09:46:42;7.78;;;4.20;;
8317;SDS011;4196;48.926;8.964;2023-06-22T09:49:29;7.38;;;4.15;;
8317;SDS011;4196;48.926;8.964;2023-06-22T09:52:32;6.45;;;4.13;;
8317;SDS011;4196;48.926;8.964;2023-06-22T09:55:33;9.35;;;5.32;;
8317;SDS011;4196;48.926;8.964;2023-06-22T09:58:20;5.60;;;4.07;;
8317;SDS011;4196;48.926;8.964;2023-06-22T10:01:06;8.48;;;4.25;;
8317;SDS011;4196;48.926;8.964;2023-06-22T10:03:53;6.80;;;4.95;;
8317;SDS011;4196;48.926;8.964;2023-06-22T10:06:42;10.15;;;4.70;;
8317;SDS011;4196;48.926;8.964;2023-06-22T10:09:29;10.10;;;4.82;;
8317;SDS011;4196;48.926;8.964;2023-06-22T10:12:15;11.65;;;5.10;;
8317;SDS011;4196;48.926;8.964;2023-06-22T10:15:02;8.25;;;4.30;;
8317;SDS011;4196;48.926;8.964;2023-06-22T10:17:49;7.18;;;4.18;;
8317;SDS011;4196;48.926;8.964;2023-06-22T10:20:36;10.82;;;4.82;;
8317;SDS011;4196;48.926;8.964;2023-06-22T10:23:22;5.40;;;4.38;;
8317;SDS011;4196;48.926;8.964;2023-06-22T10:26:09;5.75;;;4.30;;
8317;SDS011;4196;48.926;8.964;2023-06-22T10:28:56;10.52;;;4.28;;
8317;SDS011;4196;48.926;8.964;2023-06-22T10:32:01;7.78;;;4.55;;
8317;SDS011;4196;48.926;8.964;2023-06-22T10:34:48;9.48;;;4.47;;
8317;SDS011;4196;48.926;8.964;2023-06-22T10:37:35;7.25;;;5.05;;
8317;SDS011;4196;48.926;8.964;2023-06-22T10:40:21;8.80;;;4.40;;
8317;SDS011;4196;48.926;8.964;2023-06-22T10:43:08;7.53;;;4.65;;
8317;SDS011;4196;48.926;8.964;2023-06-22T10:45:54;6.97;;;4.13;;
8317;SDS011;4196;48.926;8.964;2023-06-22T10:48:41;9.20;;;4.38;;
8317;SDS011;4196;48.926;8.964;2023-06-22T10:51:27;7.95;;;4.88;;
8317;SDS011;4196;48.926;8.964;2023-06-22T10:54:14;7.07;;;4.53;;
8317;SDS011;4196;48.926;8.964;2023-06-22T10:57:03;8.80;;;4.78;;
8317;SDS011;4196;48.926;8.964;2023-06-22T10:59:49;7.80;;;4.10;;
8317;SDS011;4196;48.926;8.964;2023-06-22T11:02:35;6.82;;;4.40;;
8317;SDS011;4196;48.926;8.964;2023-06-22T11:05:22;11.00;;;5.35;;
8317;SDS011;4196;48.926;8.964;2023-06-22T11:08:08;12.30;;;4.60;;
8317;SDS011;4196;48.926;8.964;2023-06-22T11:10:55;8.40;;;5.13;;
8317;SDS011;4196;48.926;8.964;2023-06-22T11:13:42;6.53;;;4.53;;
8317;SDS011;4196;48.926;8.964;2023-06-22T11:16:28;8.75;;;4.45;;
8317;SDS011;4196;48.926;8.964;2023-06-22T11:19:15;6.57;;;4.97;;
8317;SDS011;4196;48.926;8.964;2023-06-22T11:22:02;7.90;;;4.47;;
8317;SDS011;4196;48.926;8.964;2023-06-22T11:24:48;7.68;;;4.72;;
8317;SDS011;4196;48.926;8.964;2023-06-22T11:27:35;9.00;;;4.45;;
8317;SDS011;4196;48.926;8.964;2023-06-22T11:30:21;9.95;;;4.65;;
8317;SDS011;4196;48.926;8.964;2023-06-22T11:33:08;9.80;;;4.90;;
8317;SDS011;4196;48.926;8.964;2023-06-22T11:35:55;7.38;;;4.55;;
8317;SDS011;4196;48.926;8.964;2023-06-22T11:38:42;9.57;;;4.25;;
8317;SDS011;4196;48.926;8.964;2023-06-22T11:41:29;6.40;;;3.92;;
8317;SDS011;4196;48.926;8.964;2023-06-22T11:44:15;5.93;;;4.32;;
8317;SDS011;4196;48.926;8.964;2023-06-22T11:47:02;7.15;;;4.75;;
8317;SDS011;4196;48.926;8.964;2023-06-22T11:49:50;7.90;;;4.40;;
8317;SDS011;4196;48.926;8.964;2023-06-22T11:52:36;7.35;;;4.40;;
8317;SDS011;4196;48.926;8.964;2023-06-22T11:55:23;13.43;;;4.55;;
8317;SDS011;4196;48.926;8.964;2023-06-22T11:58:09;6.20;;;4.22;;
8317;SDS011;4196;48.926;8.964;2023-06-22T12:00:57;6.63;;;4.68;;
8317;SDS011;4196;48.926;8.964;2023-06-22T12:03:44;5.80;;;4.18;;
8317;SDS011;4196;48.926;8.964;2023-06-22T12:06:35;9.90;;;4.80;;
8317;SDS011;4196;48.926;8.964;2023-06-22T12:09:23;7.38;;;5.07;;
8317;SDS011;4196;48.926;8.964;2023-06-22T12:12:10;10.20;;;5.60;;
8317;SDS011;4196;48.926;8.964;2023-06-22T12:14:56;5.47;;;4.40;;
8317;SDS011;4196;48.926;8.964;2023-06-22T12:17:42;5.88;;;4.30;;
8317;SDS011;4196;48.926;8.964;2023-06-22T12:20:29;7.20;;;3.97;;
8317;SDS011;4196;48.926;8.964;2023-06-22T12:23:16;7.32;;;4.43;;
8317;SDS011;4196;48.926;8.964;2023-06-22T12:26:02;8.82;;;4.57;;
8317;SDS011;4196;48.926;8.964;2023-06-22T12:28:49;6.45;;;4.18;;
8317;SDS011;4196;48.926;8.964;2023-06-22T12:31:36;7.13;;;3.95;;
8317;SDS011;4196;48.926;8.964;2023-06-22T12:34:24;7.32;;;4.22;;
8317;SDS011;4196;48.926;8.964;2023-06-22T12:37:11;8.50;;;4.22;;
8317;SDS011;4196;48.926;8.964;2023-06-22T12:39:57;5.35;;;4.10;;
8317;SDS011;4196;48.926;8.964;2023-06-22T12:42:47;4.90;;;4.25;;
8317;SDS011;4196;48.926;8.964;2023-06-22T12:45:33;6.20;;;4.30;;
8317;SDS011;4196;48.926;8.964;2023-06-22T12:48:21;8.05;;;4.78;;
8317;SDS011;4196;48.926;8.964;2023-06-22T12:51:09;7.13;;;5.00;;
8317;SDS011;4196;48.926;8.964;2023-06-22T12:53:56;7.90;;;4.65;;
8317;SDS011;4196;48.926;8.964;2023-06-22T12:56:42;7.80;;;4.22;;
8317;SDS011;4196;48.926;8.964;2023-06-22T12:59:31;9.82;;;4.78;;
8317;SDS011;4196;48.926;8.964;2023-06-22T13:02:18;9.48;;;4.63;;
8317;SDS011;4196;48.926;8.964;2023-06-22T13:05:04;12.35;;;4.95;;
8317;SDS011;4196;48.926;8.964;2023-06-22T13:07:51;7.57;;;4.07;;
8317;SDS011;4196;48.926;8.964;2023-06-22T13:10:37;10.27;;;4.75;;
8317;SDS011;4196;48.926;8.964;2023-06-22T13:13:25;10.05;;;4.50;;
8317;SDS011;4196;48.926;8.964;2023-06-22T13:16:12;6.97;;;4.70;;
8317;SDS011;4196;48.926;8.964;2023-06-22T13:18:59;11.55;;;4.57;;
8317;SDS011;4196;48.926;8.964;2023-06-22T13:21:45;7.95;;;4.35;;
8317;SDS011;4196;48.926;8.964;2023-06-22T13:24:32;6.35;;;4.13;;
8317;SDS011;4196;48.926;8.964;2023-06-22T13:27:18;8.38;;;4.25;;
8317;SDS011;4196;48.926;8.964;2023-06-22T13:30:05;8.88;;;4.57;;
8317;SDS011;4196;48.926;8.964;2023-06-22T13:32:52;12.70;;;5.20;;
8317;SDS011;4196;48.926;8.964;2023-06-22T13:35:38;6.60;;;4.13;;
8317;SDS011;4196;48.926;8.964;2023-06-22T13:38:43;8.70;;;4.63;;
8317;SDS011;4196;48.926;8.964;2023-06-22T13:41:46;9.18;;;4.60;;
8317;SDS011;4196;48.926;8.964;2023-06-22T13:44:33;8.13;;;5.28;;
8317;SDS011;4196;48.926;8.964;2023-06-22T13:47:37;8.90;;;4.65;;
8317;SDS011;4196;48.926;8.964;2023-06-22T13:50:41;7.75;;;4.70;;
8317;SDS011;4196;48.926;8.964;2023-06-22T13:53:27;9.60;;;4.93;;
8317;SDS011;4196;48.926;8.964;2023-06-22T13:56:14;15.07;;;5.45;;
8317;SDS011;4196;48.926;8.964;2023-06-22T13:59:01;11.35;;;5.25;;
8317;SDS011;4196;48.926;8.964;2023-06-22T14:01:47;10.73;;;5.13;;
8317;SDS011;4196;48.926;8.964;2023-06-22T14:04:33;13.20;;;4.85;;
8317;SDS011;4196;48.926;8.964;2023-06-22T14:07:20;9.85;;;4.85;;
8317;SDS011;4196;48.926;8.964;2023-06-22T14:10:07;9.38;;;5.20;;
8317;SDS011;4196;48.926;8.964;2023-06-22T14:12:54;9.38;;;5.18;;
8317;SDS011;4196;48.926;8.964;2023-06-22T14:15:41;10.00;;;5.10;;
8317;SDS011;4196;48.926;8.964;2023-06-22T14:18:28;9.38;;;4.82;;
8317;SDS011;4196;48.926;8.964;2023-06-22T14:21:15;7.93;;;4.75;;
8317;SDS011;4196;48.926;8.964;2023-06-22T14:24:02;18.80;;;8.07;;
8317;SDS011;4196;48.926;8.964;2023-06-22T14:26:49;10.65;;;5.63;;
8317;SDS011;4196;48.926;8.964;2023-06-22T14:29:35;17.83;;;7.38;;
8317;SDS011;4196;48.926;8.964;2023-06-22T14:32:22;10.75;;;4.63;;
8317;SDS011;4196;48.926;8.964;2023-06-22T14:35:08;9.43;;;4.90;;
8317;SDS011;4196;48.926;8.964;2023-06-22T14:37:55;6.88;;;4.93;;
8317;SDS011;4196;48.926;8.964;2023-06-22T14:40:42;11.93;;;5.50;;
8317;SDS011;4196;48.926;8.964;2023-06-22T14:43:48;9.80;;;4.78;;
8317;SDS011;4196;48.926;8.964;2023-06-22T14:46:35;9.43;;;5.13;;
8317;SDS011;4196;48.926;8.964;2023-06-22T14:49:22;11.23;;;4.32;;
8317;SDS011;4196;48.926;8.964;2023-06-22T14:52:09;10.18;;;3.72;;
8317;SDS011;4196;48.926;8.964;2023-06-22T14:54:55;6.20;;;2.83;;
8317;SDS011;4196;48.926;8.964;2023-06-22T14:57:42;6.40;;;3.25;;
8317;SDS011;4196;48.926;8.964;2023-06-22T15:00:29;6.60;;;3.15;;
8317;SDS011;4196;48.926;8.964;2023-06-22T15:03:15;8.35;;;4.13;;
8317;SDS011;4196;48.926;8.964;2023-06-22T15:06:08;6.00;;;3.97;;
8317;SDS011;4196;48.926;8.964;2023-06-22T15:08:55;11.63;;;4.60;;
8317;SDS011;4196;48.926;8.964;2023-06-22T15:11:42;8.35;;;4.57;;
8317;SDS011;4196;48.926;8.964;2023-06-22T15:14:28;11.75;;;4.53;;
8317;SDS011;4196;48.926;8.964;2023-06-22T15:17:16;10.45;;;4.85;;
8317;SDS011;4196;48.926;8.964;2023-06-22T15:20:03;10.13;;;4.80;;
8317;SDS011;4196;48.926;8.964;2023-06-22T15:22:51;9.50;;;5.15;;
8317;SDS011;4196;48.926;8.964;2023-06-22T15:25:38;7.35;;;4.70;;
8317;SDS011;4196;48.926;8.964;2023-06-22T15:28:27;8.82;;;5.13;;
8317;SDS011;4196;48.926;8.964;2023-06-22T15:31:15;9.30;;;4.93;;
8317;SDS011;4196;48.926;8.964;2023-06-22T15:34:01;10.02;;;4.90;;
8317;SDS011;4196;48.926;8.964;2023-06-22T15:36:49;9.55;;;5.18;;
8317;SDS011;4196;48.926;8.964;2023-06-22T15:39:38;9.00;;;5.53;;
8317;SDS011;4196;48.926;8.964;2023-06-22T15:42:24;9.98;;;5.40;;
8317;SDS011;4196;48.926;8.964;2023-06-22T15:45:11;11.27;;;5.53;;
8317;SDS011;4196;48.926;8.964;2023-06-22T15:47:58;9.20;;;5.22;;
8317;SDS011;4196;48.926;8.964;2023-06-22T15:50:44;11.63;;;5.97;;
8317;SDS011;4196;48.926;8.964;2023-06-22T15:53:31;5.45;;;4.90;;
8317;SDS011;4196;48.926;8.964;2023-06-22T15:56:17;7.75;;;5.40;;
8317;SDS011;4196;48.926;8.964;2023-06-22T15:59:04;9.25;;;5.50;;
8317;SDS011;4196;48.926;8.964;2023-06-22T16:01:50;8.35;;;4.97;;
8317;SDS011;4196;48.926;8.964;2023-06-22T16:04:37;11.15;;;5.00;;
8317;SDS011;4196;48.926;8.964;2023-06-22T16:07:23;9.50;;;4.70;;
8317;SDS011;4196;48.926;8.964;2023-06-22T16:10:10;6.90;;;4.55;;
8317;SDS011;4196;48.926;8.964;2023-06-22T16:12:57;8.75;;;5.43;;
8317;SDS011;4196;48.926;8.964;2023-06-22T16:15:43;9.02;;;5.40;;
8317;SDS011;4196;48.926;8.964;2023-06-22T16:18:30;7.68;;;5.13;;
8317;SDS011;4196;48.926;8.964;2023-06-22T16:21:17;7.25;;;4.90;;
8317;SDS011;4196;48.926;8.964;2023-06-22T16:24:04;7.82;;;4.57;;
8317;SDS011;4196;48.926;8.964;2023-06-22T16:26:50;9.45;;;5.25;;
8317;SDS011;4196;48.926;8.964;2023-06-22T16:29:37;8.25;;;3.90;;
8317;SDS011;4196;48.926;8.964;2023-06-22T16:32:24;7.38;;;3.55;;
8317;SDS011;4196;48.926;8.964;2023-06-22T16:35:11;8.05;;;4.13;;
8317;SDS011;4196;48.926;8.964;2023-06-22T16:38:00;6.75;;;4.30;;
8317;SDS011;4196;48.926;8.964;2023-06-22T16:40:46;7.80;;;3.78;;
8317;SDS011;4196;48.926;8.964;2023-06-22T16:43:33;5.60;;;3.03;;
8317;SDS011;4196;48.926;8.964;2023-06-22T16:46:19;6.35;;;2.67;;
8317;SDS011;4196;48.926;8.964;2023-06-22T16:49:06;8.05;;;2.88;;
8317;SDS011;4196;48.926;8.964;2023-06-22T16:51:53;8.38;;;2.50;;
8317;SDS011;4196;48.926;8.964;2023-06-22T16:54:39;8.70;;;2.92;;
8317;SDS011;4196;48.926;8.964;2023-06-22T16:57:45;5.93;;;2.60;;
8317;SDS011;4196;48.926;8.964;2023-06-22T17:00:32;6.57;;;2.63;;
8317;SDS011;4196;48.926;8.964;2023-06-22T17:03:26;10.93;;;3.63;;
8317;SDS011;4196;48.926;8.964;2023-06-22T17:06:19;6.47;;;3.05;;
8317;SDS011;4196;48.926;8.964;2023-06-22T17:09:06;9.93;;;3.15;;
8317;SDS011;4196;48.926;8.964;2023-06-22T17:11:58;8.05;;;3.30;;
8317;SDS011;4196;48.926;8.964;2023-06-22T17:14:45;6.72;;;3.13;;
8317;SDS011;4196;48.926;8.964;2023-06-22T17:17:32;6.55;;;2.85;;
8317;SDS011;4196;48.926;8.964;2023-06-22T17:20:20;7.63;;;3.30;;
8317;SDS011;4196;48.926;8.964;2023-06-22T17:23:07;6.10;;;2.70;;
8317;SDS011;4196;48.926;8.964;2023-06-22T17:25:53;11.13;;;3.53;;
8317;SDS011;4196;48.926;8.964;2023-06-22T17:28:46;6.05;;;2.38;;
8317;SDS011;4196;48.926;8.964;2023-06-22T17:31:37;4.35;;;2.40;;
8317;SDS011;4196;48.926;8.964;2023-06-22T17:34:29;6.53;;;2.70;;